Reedsport, Oregon
Current Conditions -  °F | °C
As of 9:35 AM on Saturday 25 Oct 2014 (Local Time) from KOTH Reporting Station
Overcast Overcast  
Wind Chill: 59°   Ceiling: 3000
Heat Index: 59°   Visibility: 9mi
Dew Point: 59°   Wind: 15mph
Humidity: 100%   Direction: 160°SSE
Pressure: 29.39"   Gusts: 25mph
Location:  43.7°N, 124.1°W
Report Text: KOTH 251635Z 16013G22KT 9SM FEW025 BKN030 OVC037 15/15 A2939 RMK AO1 P0001
Loading
Personal Weather Stations






























Interactive Weather Map
Tropical Storm Tracking
New forecast layout! Learn more

10-Day Weather Forecast

Advertisements
Track Severe Weather on mobile